Time;durP1;ratioP1;P1;durP2;ratioP2;P2;SDS_P1;SDS_P2;PMS_P1;PMS_P2;Temp;Humidity;BMP_temperature;BMP_pressure;BME280_temperature;BME280_humidity;BME280_pressure;Samples;Min_cycle;Max_cycle;Signal;HPM_P1;HPM_P2
2024/02/15 00:00:18;;;;;;;4.05;3.00;;;;;;;13.60;66.07;97611.16;4935731;28;20062;-79
2024/02/15 00:02:46;;;;;;;5.43;3.35;;;;;;;13.64;67.00;97617.47;4966478;28;20038;-78
2024/02/15 00:05:12;;;;;;;4.78;3.15;;;;;;;13.63;66.92;97609.88;4942758;28;20081;-80
2024/02/15 00:07:38;;;;;;;4.57;2.95;;;;;;;13.72;66.07;97616.19;4960265;28;20078;-78
2024/02/15 00:10:04;;;;;;;6.65;3.20;;;;;;;13.62;67.06;97606.47;4941759;28;20130;-78
2024/02/15 00:12:30;;;;;;;4.40;3.17;;;;;;;13.72;66.88;97602.34;4961644;28;20035;-78
2024/02/15 00:14:58;;;;;;;5.60;3.63;;;;;;;13.62;66.65;97603.06;4950819;28;20055;-79
2024/02/15 00:17:24;;;;;;;5.97;3.22;;;;;;;13.68;66.93;97602.06;4955025;28;20051;-79
2024/02/15 00:19:49;;;;;;;4.03;3.17;;;;;;;13.71;65.59;97598.13;4938647;28;20031;-78
2024/02/15 00:22:15;;;;;;;4.13;3.00;;;;;;;13.60;66.43;97603.31;4944946;28;20538;-78
2024/02/15 00:24:41;;;;;;;4.90;2.80;;;;;;;13.64;66.20;97601.78;4938319;28;20335;-78
2024/02/15 00:27:07;;;;;;;5.07;3.38;;;;;;;13.65;66.69;97603.34;4962784;28;20058;-79
2024/02/15 00:29:34;;;;;;;4.70;3.08;;;;;;;13.68;66.49;97600.22;4952243;28;20030;-83
2024/02/15 00:31:59;;;;;;;6.97;3.10;;;;;;;13.66;66.59;97604.91;4941196;28;20031;-81
2024/02/15 00:34:26;;;;;;;6.50;3.00;;;;;;;13.72;67.24;97607.56;4955676;28;20115;-82
2024/02/15 00:36:52;;;;;;;5.00;3.22;;;;;;;13.75;66.33;97607.06;4930016;28;20581;-82
2024/02/15 00:39:18;;;;;;;6.25;3.38;;;;;;;13.76;66.57;97600.78;4945230;28;20070;-84
2024/02/15 00:41:45;;;;;;;4.50;3.47;;;;;;;13.79;66.29;97602.88;5011542;28;20379;-83
2024/02/15 00:44:10;;;;;;;7.32;3.25;;;;;;;13.82;66.28;97602.38;4941021;28;20039;-84
2024/02/15 00:46:36;;;;;;;3.70;2.58;;;;;;;13.72;66.27;97599.72;4923065;28;20038;-83
2024/02/15 00:49:03;;;;;;;5.68;2.83;;;;;;;13.81;66.03;97606.03;5011520;28;20031;-82
2024/02/15 00:51:28;;;;;;;3.45;2.65;;;;;;;13.78;66.13;97596.09;4946618;28;20507;-84
2024/02/15 00:53:54;;;;;;;5.18;2.75;;;;;;;13.82;66.25;97599.75;4961101;28;20035;-83
2024/02/15 00:56:19;;;;;;;3.35;3.05;;;;;;;13.84;65.79;97610.75;4950567;28;20158;-84
2024/02/15 00:58:44;;;;;;;4.90;2.72;;;;;;;13.72;65.69;97612.81;4925384;28;20075;-84
2024/02/15 01:01:10;;;;;;;3.75;2.45;;;;;;;13.68;66.46;97596.81;4948075;28;20773;-79
2024/02/15 01:03:36;;;;;;;4.38;2.70;;;;;;;13.67;66.13;97605.69;4930337;28;20115;-79
2024/02/15 01:06:02;;;;;;;3.47;2.20;;;;;;;13.64;67.50;97603.59;4944434;28;20351;-79
2024/02/15 01:08:27;;;;;;;3.13;2.53;;;;;;;13.59;66.75;97601.75;4974929;28;20038;-79
2024/02/15 01:10:53;;;;;;;3.13;2.45;;;;;;;13.63;67.27;97600.19;4946248;28;20169;-79
2024/02/15 01:13:19;;;;;;;3.55;2.30;;;;;;;13.60;66.57;97600.69;4961176;28;20937;-79
2024/02/15 01:15:46;;;;;;;4.10;2.50;;;;;;;13.66;66.30;97597.06;4980266;28;20101;-79
2024/02/15 01:18:11;;;;;;;4.05;3.05;;;;;;;13.65;66.73;97594.72;4960203;28;20097;-79
2024/02/15 01:20:37;;;;;;;3.83;2.88;;;;;;;13.71;66.28;97595.50;4968681;28;20491;-79
2024/02/15 01:23:02;;;;;;;4.63;2.33;;;;;;;13.72;66.34;97591.88;4962547;28;20594;-79
2024/02/15 01:25:28;;;;;;;7.25;3.38;;;;;;;13.81;65.56;97591.13;4955618;28;20030;-79
2024/02/15 01:27:53;;;;;;;3.70;2.80;;;;;;;13.78;66.10;97594.25;4933176;28;20030;-79
2024/02/15 01:30:19;;;;;;;5.07;2.80;;;;;;;13.83;65.90;97596.13;4946050;28;20031;-78
2024/02/15 01:32:44;;;;;;;7.65;3.25;;;;;;;13.83;66.24;97589.03;4956620;28;20039;-79
2024/02/15 01:35:10;;;;;;;4.07;2.60;;;;;;;13.81;65.76;97587.72;4926415;28;20035;-78
2024/02/15 01:37:36;;;;;;;4.20;2.60;;;;;;;13.81;66.62;97595.56;4952194;28;20288;-78
2024/02/15 01:40:02;;;;;;;3.60;2.95;;;;;;;13.80;65.94;97599.25;4930565;28;20046;-78
2024/02/15 01:42:27;;;;;;;4.07;2.80;;;;;;;13.74;66.26;97581.94;4958579;28;20031;-78
2024/02/15 01:44:52;;;;;;;4.00;3.33;;;;;;;13.84;65.94;97585.38;4921846;29;20034;-78
2024/02/15 01:47:21;;;;;;;4.22;2.50;;;;;;;13.86;65.61;97583.31;4925301;28;20092;-79
2024/02/15 01:49:48;;;;;;;5.18;2.85;;;;;;;13.87;65.41;97581.47;4940345;28;20027;-79
2024/02/15 01:52:15;;;;;;;3.38;2.25;;;;;;;13.88;65.13;97585.69;4937832;28;20131;-79
2024/02/15 01:54:41;;;;;;;5.95;3.53;;;;;;;13.85;66.70;97586.19;4942226;28;20077;-79
2024/02/15 01:57:07;;;;;;;6.15;2.78;;;;;;;13.87;65.86;97581.47;4947135;28;20074;-79
2024/02/15 01:59:32;;;;;;;3.80;2.22;;;;;;;13.82;66.11;97577.00;4923594;28;20031;-79
2024/02/15 02:01:58;;;;;;;3.75;2.47;;;;;;;13.75;66.33;97576.44;4933529;28;20375;-78
2024/02/15 02:04:23;;;;;;;4.38;2.72;;;;;;;13.81;65.75;97579.84;4944696;28;20065;-79
2024/02/15 02:06:48;;;;;;;5.35;2.70;;;;;;;13.76;66.61;97578.03;4947559;28;20039;-79
2024/02/15 02:09:14;;;;;;;4.05;2.78;;;;;;;13.79;66.23;97572.25;4954698;28;20552;-79
2024/02/15 02:11:46;;;;;;;4.20;2.50;;;;;;;13.79;65.85;97568.88;5015393;28;20399;-83
2024/02/15 02:14:11;;;;;;;4.30;2.53;;;;;;;13.78;65.58;97570.69;4941840;28;20054;-83
2024/02/15 02:16:39;;;;;;;3.92;2.17;;;;;;;13.81;65.58;97574.63;4952855;28;20051;-82
2024/02/15 02:19:08;;;;;;;3.85;2.47;;;;;;;13.78;66.42;97570.69;4964264;28;20034;-81
2024/02/15 02:21:35;;;;;;;4.40;2.50;;;;;;;13.77;65.93;97573.56;4947861;28;20479;-84
2024/02/15 02:24:06;;;;;;;3.95;2.58;;;;;;;13.81;66.47;97569.38;4962390;28;20038;-83
2024/02/15 02:26:31;;;;;;;4.15;2.63;;;;;;;13.78;66.53;97580.41;4916427;29;20510;-84
2024/02/15 02:28:59;;;;;;;4.57;2.17;;;;;;;13.77;65.87;97570.94;5013431;28;20035;-84
2024/02/15 02:31:24;;;;;;;3.97;2.30;;;;;;;13.77;65.62;97576.97;5014921;28;20537;-85
2024/02/15 02:33:52;;;;;;;2.50;2.10;;;;;;;13.77;66.20;97573.56;4965318;28;20027;-85
2024/02/15 02:36:18;;;;;;;3.97;2.33;;;;;;;13.70;66.66;97563.34;4929711;29;20103;-85
2024/02/15 02:38:45;;;;;;;3.47;2.20;;;;;;;13.71;66.29;97567.53;5028604;28;20039;-84
2024/02/15 02:41:13;;;;;;;5.72;2.35;;;;;;;13.67;66.57;97569.88;4950537;28;20455;-84
2024/02/15 02:43:40;;;;;;;2.83;2.13;;;;;;;13.66;66.57;97560.44;4924739;28;20035;-85
2024/02/15 02:46:05;;;;;;;4.95;2.20;;;;;;;13.72;66.87;97568.31;4946715;28;20074;-85
2024/02/15 02:48:31;;;;;;;4.10;2.20;;;;;;;13.70;66.57;97567.78;4965544;28;20041;-84
2024/02/15 02:50:57;;;;;;;2.10;1.88;;;;;;;13.67;66.29;97572.50;4922759;29;20035;-79
2024/02/15 02:53:23;;;;;;;1.90;1.70;;;;;;;13.63;66.20;97563.56;5045713;28;20130;-79
2024/02/15 02:55:49;;;;;;;4.65;2.35;;;;;;;13.70;65.72;97570.41;4949250;28;20031;-79
2024/02/15 02:58:14;;;;;;;3.15;2.10;;;;;;;13.72;65.88;97570.94;4951936;28;20035;-79
2024/02/15 03:00:39;;;;;;;4.13;2.10;;;;;;;13.70;65.72;97565.16;4963832;28;20061;-79
2024/02/15 03:03:05;;;;;;;3.97;2.53;;;;;;;13.75;66.58;97573.03;4964739;28;20041;-79
2024/02/15 03:05:31;;;;;;;3.85;2.40;;;;;;;13.71;66.50;97569.34;4929190;28;20032;-79
2024/02/15 03:07:56;;;;;;;3.10;1.92;;;;;;;13.71;65.94;97564.09;4947881;28;20060;-79
2024/02/15 03:10:23;;;;;;;3.65;1.90;;;;;;;13.73;65.53;97564.66;4966780;28;20250;-79
2024/02/15 03:12:49;;;;;;;3.30;2.00;;;;;;;13.73;66.05;97557.59;4986475;28;20178;-79
2024/02/15 03:15:14;;;;;;;2.38;1.90;;;;;;;13.72;66.32;97569.09;4953119;28;20137;-79
2024/02/15 03:17:41;;;;;;;2.78;1.88;;;;;;;13.73;65.79;97567.28;4962347;28;20049;-79
2024/02/15 03:20:20;;;;;;;3.45;1.80;;;;;;;13.76;66.04;97566.75;4943117;28;20372;-84
2024/02/15 03:22:57;;;;;;;3.42;2.15;;;;;;;13.81;65.44;97566.78;4959828;28;20035;-84
2024/02/15 03:25:27;;;;;;;2.10;1.77;;;;;;;13.79;66.33;97571.47;5028655;28;20030;-83
2024/02/15 03:27:54;;;;;;;3.45;2.53;;;;;;;13.76;65.50;97564.13;5014579;28;20034;-84
2024/02/15 03:30:20;;;;;;;3.88;1.92;;;;;;;13.76;65.49;97562.31;5011088;28;20539;-83
2024/02/15 03:32:48;;;;;;;2.83;2.00;;;;;;;13.71;65.78;97551.03;4926440;28;20039;-84
2024/02/15 03:35:14;;;;;;;3.63;1.92;;;;;;;13.83;65.73;97562.09;4948286;28;20527;-84
2024/02/15 03:37:41;;;;;;;4.40;2.53;;;;;;;13.76;65.68;97553.66;4949759;28;20383;-82
2024/02/15 03:40:08;;;;;;;3.30;2.10;;;;;;;13.76;66.59;97559.72;4946634;28;20035;-84
2024/02/15 03:42:36;;;;;;;4.32;1.90;;;;;;;13.85;66.28;97562.63;5049492;28;20113;-85
2024/02/15 03:45:06;;;;;;;3.65;2.00;;;;;;;13.83;65.38;97557.63;4931400;28;20034;-81
2024/02/15 03:47:33;;;;;;;4.25;2.00;;;;;;;13.80;65.29;97555.53;5007470;28;20049;-82
2024/02/15 03:49:59;;;;;;;5.97;2.08;;;;;;;13.81;66.17;97559.72;4959920;28;20041;-84
2024/02/15 03:52:24;;;;;;;5.10;2.80;;;;;;;13.81;65.04;97557.13;4992718;28;20039;-82
2024/02/15 03:54:50;;;;;;;3.35;1.75;;;;;;;13.81;65.02;97558.91;4926061;28;20394;-83
2024/02/15 03:57:17;;;;;;;4.38;1.90;;;;;;;13.81;66.09;97559.72;4956799;28;20042;-83
2024/02/15 03:59:42;;;;;;;2.55;1.60;;;;;;;13.81;66.11;97553.69;4942619;28;20042;-81
2024/02/15 04:02:12;;;;;;;3.13;1.60;;;;;;;13.86;65.93;97556.31;4931438;28;20026;-83
2024/02/15 04:04:41;;;;;;;3.17;1.80;;;;;;;13.83;65.92;97555.03;4941935;28;20030;-84
2024/02/15 04:07:07;;;;;;;2.67;1.55;;;;;;;13.81;65.58;97556.31;4975369;28;20038;-83
2024/02/15 04:09:32;;;;;;;2.33;1.80;;;;;;;13.86;65.67;97551.09;4946331;28;20467;-83
2024/02/15 04:11:58;;;;;;;2.88;1.65;;;;;;;13.78;65.61;97549.75;4978731;28;20064;-84
2024/02/15 04:14:24;;;;;;;4.05;1.90;;;;;;;13.91;64.93;97561.59;4948880;28;20034;-84
2024/02/15 04:16:49;;;;;;;2.00;1.52;;;;;;;13.86;64.69;97553.72;4961945;28;20092;-84
2024/02/15 04:19:15;;;;;;;2.83;1.63;;;;;;;13.84;64.85;97553.97;4944112;28;20034;-84
2024/02/15 04:21:40;;;;;;;3.75;2.00;;;;;;;13.81;65.64;97556.31;4961891;28;20088;-83
2024/02/15 04:24:06;;;;;;;3.08;1.58;;;;;;;13.84;66.00;97553.19;4927365;28;20395;-84
2024/02/15 04:26:32;;;;;;;3.10;1.70;;;;;;;13.94;64.95;97553.22;4951876;28;20070;-84
2024/02/15 04:28:58;;;;;;;2.47;1.50;;;;;;;13.97;64.44;97552.72;4971714;28;20326;-83
2024/02/15 04:31:26;;;;;;;3.50;1.60;;;;;;;13.91;64.28;97553.72;4959668;28;20066;-84
2024/02/15 04:33:55;;;;;;;2.78;1.73;;;;;;;13.88;64.83;97559.50;4978319;28;20027;-82
2024/02/15 04:36:24;;;;;;;4.38;2.10;;;;;;;13.83;65.39;97554.25;4962498;28;20035;-83
2024/02/15 04:38:51;;;;;;;3.90;1.80;;;;;;;13.85;65.68;97552.16;5012276;28;20109;-84
2024/02/15 04:41:21;;;;;;;3.83;1.60;;;;;;;13.89;64.34;97545.34;4958310;28;20475;-83
2024/02/15 04:43:47;;;;;;;2.83;1.92;;;;;;;13.93;65.36;97556.91;4939837;28;20510;-83
2024/02/15 04:46:14;;;;;;;4.15;1.92;;;;;;;13.90;64.67;97553.97;4957783;28;20070;-84
2024/02/15 04:48:41;;;;;;;2.78;1.60;;;;;;;13.96;65.00;97548.50;4945510;28;20065;-81
2024/02/15 04:51:07;;;;;;;2.22;1.55;;;;;;;13.89;64.99;97553.19;5040057;28;20042;-84
2024/02/15 04:53:33;;;;;;;4.70;1.67;;;;;;;13.90;65.09;97551.38;4962347;28;20043;-84
2024/02/15 04:56:01;;;;;;;6.75;1.70;;;;;;;13.87;64.94;97550.06;4925460;28;20038;-83
2024/02/15 04:58:28;;;;;;;3.88;2.00;;;;;;;13.87;64.54;97542.22;4941445;28;20422;-84
2024/02/15 05:00:58;;;;;;;3.55;1.85;;;;;;;13.79;64.73;97543.47;5019477;28;20030;-83
2024/02/15 05:03:24;;;;;;;3.35;1.42;;;;;;;13.80;65.54;97542.44;4947584;28;20035;-84
2024/02/15 05:05:50;;;;;;;2.67;1.83;;;;;;;13.83;64.40;97541.16;5027493;28;20030;-84
2024/02/15 05:08:15;;;;;;;4.95;1.77;;;;;;;13.93;64.60;97543.81;4959396;28;20502;-85
2024/02/15 05:10:41;;;;;;;3.75;2.20;;;;;;;13.98;64.59;97541.22;4958472;28;20041;-85
2024/02/15 05:13:06;;;;;;;2.72;1.70;;;;;;;13.89;64.48;97537.50;4958620;28;20027;-84
2024/02/15 05:15:32;;;;;;;2.65;2.13;;;;;;;13.88;64.46;97529.91;4947402;28;20031;-82
2024/02/15 05:18:01;;;;;;;2.13;1.45;;;;;;;13.86;64.68;97527.53;4963181;28;20150;-83
2024/02/15 05:20:26;;;;;;;4.60;1.95;;;;;;;13.81;64.37;97525.72;5025171;28;20603;-81
2024/02/15 05:22:53;;;;;;;3.80;1.70;;;;;;;13.77;64.71;97529.09;4977744;28;20026;-83
2024/02/15 05:25:29;;;;;;;3.33;1.90;;;;;;;13.73;64.23;97520.19;4960344;28;20123;-84
2024/02/15 05:27:55;;;;;;;2.90;1.70;;;;;;;13.65;64.40;97514.38;4937634;28;20031;-83
2024/02/15 05:30:20;;;;;;;3.40;1.50;;;;;;;13.62;64.50;97519.31;4935055;28;20031;-82
2024/02/15 05:32:46;;;;;;;3.50;1.50;;;;;;;13.59;64.88;97523.25;4943601;28;20031;-83
2024/02/15 05:35:11;;;;;;;5.20;1.75;;;;;;;13.60;63.94;97522.19;4972309;28;20449;-83
2024/02/15 05:37:38;;;;;;;3.08;1.70;;;;;;;13.51;64.02;97513.28;4926455;28;20031;-83
2024/02/15 05:40:07;;;;;;;2.75;1.70;;;;;;;13.56;64.30;97520.38;4963222;28;20038;-79
2024/02/15 05:42:32;;;;;;;2.80;1.40;;;;;;;13.45;65.16;97519.50;4933930;28;20141;-79
2024/02/15 05:45:26;;;;;;;2.83;1.63;;;;;;;13.55;64.42;97519.56;4957237;28;20026;-79
2024/02/15 05:47:52;;;;;;;3.60;2.00;;;;;;;13.44;65.70;97518.72;4942176;28;20035;-79
2024/02/15 05:50:20;;;;;;;1.40;1.27;;;;;;;13.44;64.17;97520.56;4942753;28;20506;-79
2024/02/15 05:52:48;;;;;;;4.45;1.38;;;;;;;13.40;64.79;97516.88;4942657;28;20045;-79
2024/02/15 05:55:16;;;;;;;2.78;1.65;;;;;;;13.32;64.31;97505.06;4948112;28;20041;-79
2024/02/15 05:57:43;;;;;;;2.20;1.40;;;;;;;13.26;64.30;97495.59;4973073;28;20046;-79
2024/02/15 06:00:09;;;;;;;2.15;1.30;;;;;;;13.17;64.93;97487.44;4975241;28;20538;-79
2024/02/15 06:02:34;;;;;;;2.28;1.15;;;;;;;13.12;64.12;97495.25;4942316;28;20027;-79
2024/02/15 06:05:04;;;;;;;1.85;1.40;;;;;;;13.12;63.07;97484.78;4927313;28;20041;-79
2024/02/15 06:07:33;;;;;;;1.98;1.60;;;;;;;13.00;63.15;97482.34;4957900;28;20035;-79
2024/02/15 06:10:03;;;;;;;4.70;2.10;;;;;;;12.90;62.78;97477.88;4923772;28;20250;-79
2024/02/15 06:12:31;;;;;;;3.20;1.48;;;;;;;12.88;63.17;97476.53;4949531;28;20118;-79
2024/02/15 06:14:57;;;;;;;3.03;1.48;;;;;;;12.74;63.98;97476.97;4957649;28;20028;-79
2024/02/15 06:17:22;;;;;;;2.60;1.50;;;;;;;12.73;64.90;97471.97;5017068;28;20494;-78
2024/02/15 06:19:48;;;;;;;4.47;1.70;;;;;;;12.72;64.25;97467.81;4941657;28;20031;-79
2024/02/15 06:22:14;;;;;;;2.17;1.52;;;;;;;12.76;64.38;97470.72;4959003;28;20223;-79
2024/02/15 06:24:41;;;;;;;2.80;1.80;;;;;;;12.80;65.25;97469.97;5015074;28;20023;-79
2024/02/15 06:27:06;;;;;;;2.83;2.00;;;;;;;12.88;65.77;97472.09;4957532;28;20495;-78
2024/02/15 06:40:28;;;;;;;2.40;1.70;;;;;;;12.95;63.97;97479.72;4982558;28;20311;-79
2024/02/15 06:42:54;;;;;;;2.88;1.88;;;;;;;12.89;64.88;97484.13;4939463;28;20061;-79
2024/02/15 06:45:19;;;;;;;4.43;1.60;;;;;;;12.80;64.69;97480.41;4956045;28;20085;-79
2024/02/15 06:47:45;;;;;;;2.72;1.45;;;;;;;12.82;64.70;97480.16;5038268;28;20049;-79
2024/02/15 06:50:14;;;;;;;4.57;1.83;;;;;;;12.90;65.37;97480.50;4941521;28;20081;-84
2024/02/15 06:52:40;;;;;;;2.92;1.45;;;;;;;12.83;64.91;97484.34;4952491;28;20042;-84
2024/02/15 06:55:07;;;;;;;3.72;1.58;;;;;;;12.84;65.17;97486.72;4956594;28;20034;-84
2024/02/15 06:57:35;;;;;;;2.13;1.27;;;;;;;12.84;65.88;97483.31;4919666;28;21591;-84
2024/02/15 07:00:04;;;;;;;5.25;1.40;;;;;;;12.84;65.09;97491.16;5000049;28;20038;-84
2024/02/15 07:02:30;;;;;;;2.20;1.40;;;;;;;12.80;65.89;97490.06;4970507;28;20062;-84
2024/02/15 07:04:55;;;;;;;1.85;1.20;;;;;;;12.78;65.39;97486.91;4942353;28;20394;-84
2024/02/15 07:07:21;;;;;;;1.48;1.33;;;;;;;12.80;65.61;97485.66;4943221;28;20295;-84
2024/02/15 07:09:47;;;;;;;3.15;1.60;;;;;;;12.85;65.38;97484.88;4938356;28;20027;-84
2024/02/15 07:12:12;;;;;;;2.53;1.58;;;;;;;12.84;65.22;97480.69;5025493;28;20034;-84
2024/02/15 07:14:38;;;;;;;3.60;1.48;;;;;;;12.82;65.27;97480.94;4958000;28;20048;-84
2024/02/15 07:17:04;;;;;;;2.72;1.25;;;;;;;12.78;65.30;97481.69;4944875;28;20468;-81
2024/02/15 07:19:33;;;;;;;2.90;1.50;;;;;;;12.80;65.32;97483.03;5041575;28;20117;-83
2024/02/15 07:21:58;;;;;;;2.58;1.63;;;;;;;12.80;65.56;97488.25;4976897;28;20116;-83
2024/02/15 07:24:26;;;;;;;3.63;1.60;;;;;;;12.83;65.12;97479.91;4933036;28;20129;-83
2024/02/15 07:26:54;;;;;;;2.72;1.42;;;;;;;12.83;65.71;97479.13;4994024;28;20103;-82
2024/02/15 07:29:21;;;;;;;2.72;1.20;;;;;;;12.93;65.75;97481.78;5044540;28;20494;-82
2024/02/15 07:31:46;;;;;;;3.03;1.40;;;;;;;13.01;65.43;97483.94;4980531;28;20498;-83
2024/02/15 07:34:12;;;;;;;3.15;1.35;;;;;;;13.06;65.98;97480.59;4964696;28;20088;-84
2024/02/15 07:36:39;;;;;;;2.53;1.60;;;;;;;13.13;65.35;97483.75;4960739;28;20050;-83
2024/02/15 07:39:04;;;;;;;6.05;1.95;;;;;;;13.23;65.60;97490.84;4940470;28;20453;-81
2024/02/15 07:41:30;;;;;;;2.83;1.42;;;;;;;13.27;65.83;97490.09;4962458;28;20035;-84
2024/02/15 07:43:57;;;;;;;2.78;1.10;;;;;;;13.34;65.68;97489.13;4943859;28;20061;-82
2024/02/15 07:46:24;;;;;;;3.28;1.55;;;;;;;13.50;65.41;97496.00;4953855;28;20138;-82
2024/02/15 07:48:49;;;;;;;2.60;1.50;;;;;;;13.56;65.13;97499.44;4944838;28;20486;-84
2024/02/15 07:51:18;;;;;;;5.03;1.40;;;;;;;13.62;65.28;97504.44;5012944;28;20514;-84
2024/02/15 07:53:43;;;;;;;3.92;1.55;;;;;;;13.61;65.20;97507.31;4948863;28;20031;-83
2024/02/15 07:56:10;;;;;;;1.42;1.10;;;;;;;13.64;65.02;97512.00;4930215;28;20027;-84
2024/02/15 07:58:39;;;;;;;3.17;1.17;;;;;;;13.63;65.36;97511.22;4945216;28;20395;-84
2024/02/15 08:01:05;;;;;;;2.28;1.38;;;;;;;13.68;65.35;97508.63;4997143;28;20119;-84
2024/02/15 08:03:30;;;;;;;2.63;2.20;;;;;;;13.70;65.60;97504.97;4960801;28;20130;-84
2024/02/15 08:05:56;;;;;;;1.75;1.13;;;;;;;13.79;65.04;97514.69;4965574;28;20451;-83
2024/02/15 08:08:21;;;;;;;1.70;1.02;;;;;;;13.81;64.71;97502.16;4953018;28;20555;-83
2024/02/15 08:10:48;;;;;;;5.10;1.58;;;;;;;13.90;64.82;97509.47;4964662;28;20050;-84
2024/02/15 08:13:15;;;;;;;3.00;1.10;;;;;;;13.96;65.08;97509.25;4956089;28;20490;-84
2024/02/15 08:15:40;;;;;;;3.03;1.40;;;;;;;14.04;65.37;97521.06;4959116;28;20530;-84
2024/02/15 08:18:09;;;;;;;2.65;1.30;;;;;;;14.07;64.54;97509.28;4943123;28;20046;-83
2024/02/15 08:20:34;;;;;;;2.03;1.30;;;;;;;14.14;64.09;97512.44;4951174;28;20076;-84
2024/02/15 08:22:59;;;;;;;2.97;1.10;;;;;;;14.23;64.84;97513.50;4940785;28;20387;-83
2024/02/15 08:25:25;;;;;;;4.05;1.10;;;;;;;14.31;64.41;97502.53;4996677;28;20487;-83
2024/02/15 08:27:51;;;;;;;2.83;1.15;;;;;;;14.43;64.02;97500.44;4946617;28;20033;-83
2024/02/15 08:30:17;;;;;;;1.13;0.88;;;;;;;14.45;63.71;97496.78;5012299;28;20227;-83
2024/02/15 08:32:43;;;;;;;2.58;1.33;;;;;;;14.50;63.20;97487.09;4935461;28;20067;-83
2024/02/15 08:35:09;;;;;;;2.85;0.90;;;;;;;14.59;62.73;97479.50;4931322;28;20386;-83
2024/02/15 08:37:36;;;;;;;3.15;1.10;;;;;;;14.74;62.15;97481.34;4948395;28;20027;-83
2024/02/15 08:40:10;;;;;;;2.20;1.42;;;;;;;14.84;61.90;97480.53;4945432;28;20039;-84
2024/02/15 08:42:42;;;;;;;1.25;0.95;;;;;;;14.97;62.13;97486.03;4944710;28;20041;-79
2024/02/15 08:45:08;;;;;;;1.45;1.15;;;;;;;15.01;61.86;97496.78;4955784;28;20292;-79
2024/02/15 08:47:38;;;;;;;2.47;1.13;;;;;;;15.01;59.27;97496.00;4930497;28;20027;-78
2024/02/15 08:50:04;;;;;;;2.08;0.70;;;;;;;15.09;59.09;97492.84;5029910;28;20479;-79
2024/02/15 08:52:30;;;;;;;1.88;0.90;;;;;;;15.14;59.22;97485.72;4966952;28;20042;-84
2024/02/15 08:54:57;;;;;;;2.33;1.10;;;;;;;15.14;58.67;97480.47;4943620;28;20035;-82
2024/02/15 08:57:23;;;;;;;1.10;0.70;;;;;;;15.23;59.49;97474.69;4976195;28;20498;-84
2024/02/15 08:59:48;;;;;;;3.03;1.35;;;;;;;15.24;59.43;97463.16;4949388;28;20035;-84
2024/02/15 09:02:14;;;;;;;2.00;1.00;;;;;;;15.26;60.13;97464.47;4949173;28;20084;-84
2024/02/15 09:04:40;;;;;;;1.45;0.90;;;;;;;15.31;59.35;97461.03;4967364;28;20129;-84
2024/02/15 09:07:07;;;;;;;1.83;0.80;;;;;;;15.41;59.16;97468.88;5010512;28;20050;-83
2024/02/15 09:09:33;;;;;;;1.60;0.85;;;;;;;15.47;58.18;97470.44;4943387;28;20027;-84
2024/02/15 09:12:05;;;;;;;2.70;1.30;;;;;;;15.59;58.46;97470.09;4933319;28;20399;-82
2024/02/15 09:14:33;;;;;;;1.70;0.80;;;;;;;15.71;57.25;97472.41;4989615;28;20062;-83
2024/02/15 09:17:00;;;;;;;3.72;0.82;;;;;;;15.76;57.48;97459.28;4967323;28;20441;-84
2024/02/15 09:19:25;;;;;;;1.58;0.70;;;;;;;15.80;56.77;97456.91;4990463;28;20695;-83
2024/02/15 09:21:50;;;;;;;2.83;1.00;;;;;;;15.77;57.72;97460.88;4966635;28;20114;-82
2024/02/15 09:24:16;;;;;;;1.48;0.90;;;;;;;15.80;56.11;97457.72;4978750;28;20047;-83
2024/02/15 09:26:42;;;;;;;2.25;1.00;;;;;;;15.83;55.00;97449.28;4935386;28;20537;-84
2024/02/15 09:29:08;;;;;;;1.33;0.80;;;;;;;15.89;55.26;97463.19;4940583;28;20035;-84
2024/02/15 09:31:34;;;;;;;2.80;0.90;;;;;;;15.94;55.52;97465.78;4967469;28;20035;-82
2024/02/15 09:34:00;;;;;;;2.83;0.90;;;;;;;16.02;56.47;97453.91;4963493;28;20078;-83
2024/02/15 09:36:25;;;;;;;1.38;0.73;;;;;;;16.05;56.52;97450.72;4966208;28;20086;-83
2024/02/15 09:38:54;;;;;;;1.73;1.00;;;;;;;16.03;56.15;97452.84;4940007;28;20494;-83
2024/02/15 09:41:19;;;;;;;0.95;0.63;;;;;;;16.06;55.94;97447.84;4966812;28;20381;-84
2024/02/15 09:43:44;;;;;;;2.20;1.08;;;;;;;16.06;55.74;97450.47;4949871;28;20029;-84
2024/02/15 09:46:10;;;;;;;1.20;0.63;;;;;;;16.11;56.42;97444.41;4959935;28;20035;-84
2024/02/15 09:48:37;;;;;;;1.33;0.85;;;;;;;16.05;54.76;97434.97;4951401;28;20483;-83
2024/02/15 09:51:03;;;;;;;2.10;1.05;;;;;;;16.04;55.96;97439.44;4961255;28;20063;-82
2024/02/15 09:53:29;;;;;;;2.50;1.17;;;;;;;16.12;56.06;97443.31;4925122;29;20036;-84
2024/02/15 09:55:55;;;;;;;1.27;0.82;;;;;;;16.25;56.18;97442.72;5010090;28;20129;-84
2024/02/15 09:58:23;;;;;;;2.25;0.82;;;;;;;16.24;55.87;97440.34;4950535;28;20052;-84
2024/02/15 10:00:49;;;;;;;2.33;1.38;;;;;;;16.25;56.18;97447.97;4967627;28;20035;-83
2024/02/15 10:03:18;;;;;;;2.58;0.80;;;;;;;16.43;55.75;97446.53;4946189;28;20055;-82
2024/02/15 10:05:43;;;;;;;1.27;0.70;;;;;;;16.46;54.68;97439.94;5019695;28;20053;-84
2024/02/15 10:08:11;;;;;;;2.88;0.90;;;;;;;16.48;54.39;97443.88;5032322;28;20471;-84
2024/02/15 10:10:36;;;;;;;1.33;1.10;;;;;;;16.46;55.10;97439.94;4948817;28;20506;-84
2024/02/15 10:13:01;;;;;;;1.90;0.80;;;;;;;16.53;54.33;97440.38;5031771;28;20030;-83
2024/02/15 10:15:35;;;;;;;2.28;0.95;;;;;;;16.61;54.18;97441.66;4947438;28;20120;-84
2024/02/15 10:18:07;;;;;;;3.28;1.17;;;;;;;16.63;54.58;97444.78;4960821;28;20035;-83
2024/02/15 10:20:34;;;;;;;1.92;0.70;;;;;;;16.57;53.55;97441.41;4949651;28;20114;-82
2024/02/15 10:22:59;;;;;;;1.38;0.90;;;;;;;16.65;53.73;97437.41;4962509;28;20027;-84
2024/02/15 10:25:27;;;;;;;1.38;0.73;;;;;;;16.74;52.87;97438.38;4959786;28;20540;-82
2024/02/15 10:28:06;;;;;;;1.42;0.93;;;;;;;16.87;51.60;97438.81;5011866;28;20031;-84
2024/02/15 10:30:34;;;;;;;1.23;0.70;;;;;;;16.91;52.89;97440.59;4982258;28;20042;-83
2024/02/15 10:32:59;;;;;;;2.35;0.70;;;;;;;16.90;52.77;97431.16;4950744;28;20027;-82
2024/02/15 10:35:25;;;;;;;1.05;0.70;;;;;;;16.90;52.46;97428.53;4945218;28;20518;-83
2024/02/15 10:37:50;;;;;;;1.08;0.93;;;;;;;16.89;53.41;97416.41;4941282;28;20036;-81
2024/02/15 10:40:23;;;;;;;1.33;0.95;;;;;;;17.01;53.40;97421.28;4949748;28;20125;-83
2024/02/15 10:42:51;;;;;;;1.20;0.77;;;;;;;16.98;53.07;97422.66;4935487;28;20038;-83
2024/02/15 10:45:20;;;;;;;0.70;0.60;;;;;;;16.98;51.86;97417.38;5016606;28;20038;-83
2024/02/15 10:47:47;;;;;;;2.35;1.08;;;;;;;17.08;51.75;97415.69;4958505;28;20039;-84
2024/02/15 10:50:13;;;;;;;1.30;0.63;;;;;;;17.05;52.61;97398.66;4949611;28;20043;-82
2024/02/15 10:52:48;;;;;;;1.58;0.70;;;;;;;17.25;52.31;97402.88;4944804;28;20042;-83
2024/02/15 10:55:19;;;;;;;2.33;0.85;;;;;;;17.24;52.64;97406.56;4983890;28;20053;-83
2024/02/15 10:57:46;;;;;;;1.45;0.73;;;;;;;17.22;51.17;97395.53;4928092;28;20122;-84
2024/02/15 11:00:20;;;;;;;1.30;1.05;;;;;;;17.20;52.54;97392.41;4948100;28;20082;-82
2024/02/15 11:03:02;;;;;;;0.98;0.65;;;;;;;17.34;53.16;97374.88;4962073;28;20042;-83
2024/02/15 11:05:32;;;;;;;1.00;0.70;;;;;;;17.47;51.60;97383.13;5032232;28;20039;-82
2024/02/15 11:07:58;;;;;;;0.95;0.63;;;;;;;17.42;51.93;97378.72;4955156;28;20088;-82
2024/02/15 11:10:25;;;;;;;3.72;0.82;;;;;;;17.52;52.38;97370.69;5012910;28;20042;-83
2024/02/15 11:12:51;;;;;;;1.75;0.98;;;;;;;17.52;51.94;97364.63;4958888;28;20490;-79
2024/02/15 11:15:41;;;;;;;1.02;0.75;;;;;;;17.72;52.24;97368.84;5009576;28;20461;-79
2024/02/15 11:18:06;;;;;;;1.92;1.17;;;;;;;17.59;51.37;97357.16;4957781;28;20049;-78
2024/02/15 11:20:35;;;;;;;1.55;0.70;;;;;;;17.70;51.32;97363.84;4943624;28;20457;-79
2024/02/15 11:23:03;;;;;;;1.55;0.82;;;;;;;17.74;51.52;97364.84;4964891;28;20420;-79
2024/02/15 11:25:39;;;;;;;1.48;0.90;;;;;;;17.83;50.27;97346.53;4970168;28;20118;-78
2024/02/15 11:28:23;;;;;;;3.38;1.25;;;;;;;17.95;51.36;97356.66;5036099;28;20035;-79
2024/02/15 11:30:49;;;;;;;1.00;0.73;;;;;;;17.83;51.18;97354.44;4961583;28;20039;-80
2024/02/15 11:33:36;;;;;;;2.28;0.70;;;;;;;18.07;48.82;97361.47;5038615;28;20062;-78
2024/02/15 11:36:03;;;;;;;2.08;1.05;;;;;;;17.95;49.94;97352.16;5033926;28;20411;-79
2024/02/15 11:38:29;;;;;;;1.13;0.60;;;;;;;18.00;50.70;97356.56;4958125;28;20065;-79
2024/02/15 11:40:55;;;;;;;2.33;0.75;;;;;;;18.05;50.27;97350.47;4961439;28;20106;-80
2024/02/15 11:43:43;;;;;;;1.30;0.70;;;;;;;18.30;50.63;97347.41;4964510;28;20026;-80